createdAt,value
2019-01-12T00:00:48.789Z,0.00
2019-01-12T00:01:48.791Z,0.00
2019-01-12T00:03:41.684Z,0.00
2019-01-12T00:04:41.695Z,0.00
2019-01-12T00:06:34.598Z,0.00
2019-01-12T00:07:34.604Z,0.00
2019-01-12T00:09:27.500Z,0.00
2019-01-12T00:10:27.512Z,0.00
2019-01-12T00:12:20.416Z,0.00
2019-01-12T00:13:20.421Z,0.00
2019-01-12T00:15:13.324Z,0.00
2019-01-12T00:16:13.331Z,0.00
2019-01-12T00:18:06.227Z,0.00
2019-01-12T00:19:06.239Z,0.00
2019-01-12T00:20:59.144Z,0.00
2019-01-12T00:21:59.150Z,0.00
2019-01-12T00:23:52.049Z,0.00
2019-01-12T00:24:52.056Z,0.00
2019-01-12T00:26:44.965Z,0.00
2019-01-12T00:27:44.966Z,0.00
2019-01-12T00:29:37.866Z,0.00
2019-01-12T00:30:37.876Z,0.00
2019-01-12T00:32:31.778Z,0.00
2019-01-12T00:33:31.783Z,0.00
2019-01-12T00:35:24.742Z,0.00
2019-01-12T00:36:24.718Z,0.00
2019-01-12T00:38:17.712Z,0.00
2019-01-12T00:39:17.638Z,0.00
2019-01-12T00:41:10.682Z,0.00
2019-01-12T00:42:10.688Z,0.00
2019-01-12T00:44:03.556Z,0.00
2019-01-12T00:45:03.564Z,0.00
2019-01-12T00:46:56.470Z,0.00
2019-01-12T00:47:56.474Z,0.00
2019-01-12T00:49:49.371Z,0.00
2019-01-12T00:50:49.382Z,0.00
2019-01-12T00:52:42.287Z,0.00
2019-01-12T00:53:42.292Z,0.00
2019-01-12T00:55:35.185Z,0.00
2019-01-12T00:56:35.201Z,0.00
2019-01-12T00:58:28.106Z,0.00
2019-01-12T00:59:28.108Z,0.00
2019-01-12T01:01:21.011Z,0.00
2019-01-12T01:02:21.015Z,0.00
2019-01-12T01:04:13.910Z,0.00
2019-01-12T01:05:13.930Z,0.00
2019-01-12T01:07:06.827Z,0.00
2019-01-12T01:08:06.830Z,0.00
2019-01-12T01:09:59.730Z,0.00
2019-01-12T01:10:59.740Z,0.00
2019-01-12T01:12:52.642Z,0.00
2019-01-12T01:13:52.646Z,0.00
2019-01-12T01:15:45.542Z,0.00
2019-01-12T01:16:45.554Z,0.00
2019-01-12T01:18:38.460Z,0.00
2019-01-12T01:19:38.468Z,0.00
2019-01-12T01:21:31.378Z,0.00
2019-01-12T01:22:31.373Z,0.00
2019-01-12T01:24:24.270Z,0.00
2019-01-12T01:25:24.281Z,0.00
2019-01-12T01:27:17.183Z,0.00
2019-01-12T01:28:17.189Z,0.00
2019-01-12T01:30:10.082Z,0.00
2019-01-12T01:31:10.097Z,0.00
2019-01-12T01:33:03.002Z,0.00
2019-01-12T01:34:03.005Z,0.00
2019-01-12T01:35:55.900Z,0.00
2019-01-12T01:36:55.914Z,0.00
2019-01-12T01:38:48.818Z,0.00
2019-01-12T01:39:48.823Z,0.00
2019-01-12T01:41:41.731Z,0.00
2019-01-12T01:42:41.732Z,0.00
2019-01-12T01:44:34.629Z,0.00
2019-01-12T01:45:34.640Z,0.00
2019-01-12T01:47:27.610Z,0.00
2019-01-12T01:48:27.551Z,0.00
2019-01-12T01:50:20.452Z,0.00
2019-01-12T01:51:20.462Z,0.00
2019-01-12T01:53:13.364Z,0.00
2019-01-12T01:54:13.367Z,0.00
2019-01-12T01:56:06.263Z,0.00
2019-01-12T01:57:06.275Z,0.00
2019-01-12T01:58:59.179Z,0.00
2019-01-12T01:59:59.181Z,0.00
2019-01-12T02:01:52.079Z,0.00
2019-01-12T02:02:52.088Z,0.00
2019-01-12T02:04:44.992Z,0.00
2019-01-12T02:05:45.000Z,0.00
2019-01-12T02:07:37.894Z,0.00
2019-01-12T02:08:37.905Z,0.00
2019-01-12T02:10:30.810Z,0.00
2019-01-12T02:11:30.812Z,0.00
2019-01-12T02:13:23.719Z,0.00
2019-01-12T02:14:24.631Z,0.00
2019-01-12T02:16:16.617Z,0.00
2019-01-12T02:17:16.629Z,0.00
2019-01-12T02:19:09.534Z,0.00
2019-01-12T02:20:09.536Z,0.00
2019-01-12T02:22:02.430Z,0.00
2019-01-12T02:23:02.441Z,0.00
2019-01-12T02:24:59.886Z,0.00
2019-01-12T02:25:55.352Z,0.00
2019-01-12T02:27:48.249Z,0.00
2019-01-12T02:28:48.260Z,0.00
2019-01-12T02:30:41.163Z,0.00
2019-01-12T02:31:41.167Z,0.00
2019-01-12T02:33:34.072Z,0.00
2019-01-12T02:34:34.076Z,0.00
2019-01-12T02:36:26.970Z,0.00
2019-01-12T02:37:26.987Z,0.00
2019-01-12T02:39:19.888Z,0.00
2019-01-12T02:40:19.890Z,0.00
2019-01-12T02:42:12.786Z,0.00
2019-01-12T02:43:12.802Z,0.00
2019-01-12T02:45:05.712Z,0.00
2019-01-12T02:46:05.709Z,0.00
2019-01-12T02:47:58.609Z,0.00
2019-01-12T02:48:58.622Z,0.00
2019-01-12T02:50:51.524Z,0.00
2019-01-12T02:51:51.529Z,0.00
2019-01-12T02:53:44.431Z,0.00
2019-01-12T02:54:44.437Z,0.00
2019-01-12T02:56:37.337Z,0.00
2019-01-12T02:57:37.349Z,0.00
2019-01-12T02:59:30.249Z,0.00
2019-01-12T03:00:30.262Z,0.00
2019-01-12T03:02:23.151Z,0.00
2019-01-12T03:03:23.161Z,0.00
2019-01-12T03:05:16.070Z,0.00
2019-01-12T03:06:16.069Z,0.00
2019-01-12T03:08:08.966Z,0.00
2019-01-12T03:09:08.976Z,0.00
2019-01-12T03:11:01.905Z,0.00
2019-01-12T03:12:01.883Z,0.00
2019-01-12T03:13:54.780Z,0.00
2019-01-12T03:14:54.790Z,0.00
2019-01-12T03:16:47.716Z,0.00
2019-01-12T03:17:47.700Z,0.00
2019-01-12T03:19:40.596Z,0.00
2019-01-12T03:20:40.608Z,0.00
2019-01-12T03:22:33.515Z,0.00
2019-01-12T03:23:33.532Z,0.00
2019-01-12T03:25:26.418Z,0.00
2019-01-12T03:26:26.424Z,0.00
2019-01-12T03:28:19.319Z,0.00
2019-01-12T03:29:19.331Z,0.00
2019-01-12T03:31:12.234Z,0.00
2019-01-12T03:32:12.248Z,0.00
2019-01-12T03:34:05.277Z,0.00
2019-01-12T03:35:05.288Z,0.00
2019-01-12T03:36:58.198Z,0.00
2019-01-12T03:37:58.197Z,0.00
2019-01-12T03:39:51.096Z,0.00
2019-01-12T03:40:51.109Z,0.00
2019-01-12T03:42:44.012Z,0.00
2019-01-12T03:43:44.017Z,0.00
2019-01-12T03:45:36.914Z,0.00
2019-01-12T03:46:36.923Z,0.00
2019-01-12T03:48:29.832Z,0.00
2019-01-12T03:49:29.834Z,0.00
2019-01-12T03:51:22.739Z,0.00
2019-01-12T03:52:22.741Z,0.00
2019-01-12T03:54:15.638Z,0.00
2019-01-12T03:55:15.651Z,0.00
2019-01-12T03:57:08.556Z,0.00
2019-01-12T03:58:08.558Z,0.00
2019-01-12T04:00:01.452Z,0.00
2019-01-12T04:01:01.463Z,0.00
2019-01-12T04:02:54.366Z,0.00
2019-01-12T04:03:54.367Z,0.00
2019-01-12T04:05:47.265Z,0.00
2019-01-12T04:06:47.276Z,0.00
2019-01-12T04:08:40.232Z,0.00
2019-01-12T04:09:40.228Z,0.00
2019-01-12T04:11:33.162Z,0.00
2019-01-12T04:12:33.139Z,0.00
2019-01-12T04:14:26.037Z,0.00
2019-01-12T04:15:26.048Z,0.00
2019-01-12T04:17:18.955Z,0.00
2019-01-12T04:18:18.956Z,0.00
2019-01-12T04:20:11.856Z,0.00
2019-01-12T04:21:11.866Z,0.00
2019-01-12T04:23:04.772Z,0.00
2019-01-12T04:24:04.775Z,0.00
2019-01-12T04:25:57.669Z,0.00
2019-01-12T04:26:57.700Z,0.00
2019-01-12T04:28:50.581Z,0.00
2019-01-12T04:29:50.583Z,0.00
2019-01-12T04:31:43.499Z,0.00
2019-01-12T04:32:43.494Z,0.00
2019-01-12T04:34:36.388Z,0.00
2019-01-12T04:35:36.401Z,0.00
2019-01-12T04:37:29.313Z,0.00
2019-01-12T04:38:29.307Z,0.00
2019-01-12T04:40:22.205Z,0.00
2019-01-12T04:41:22.215Z,0.00
2019-01-12T04:43:15.118Z,0.00
2019-01-12T04:44:15.122Z,0.00
2019-01-12T04:46:08.021Z,0.00
2019-01-12T04:47:08.031Z,0.00
2019-01-12T04:49:00.937Z,0.00
2019-01-12T04:50:00.954Z,0.00
2019-01-12T04:51:53.839Z,0.00
2019-01-12T04:52:53.851Z,0.00
2019-01-12T04:54:46.758Z,0.00
2019-01-12T04:55:46.762Z,0.00
2019-01-12T04:57:39.665Z,0.00
2019-01-12T04:58:39.670Z,0.00
2019-01-12T05:00:32.568Z,0.00
2019-01-12T05:01:32.579Z,0.00
2019-01-12T05:03:25.486Z,0.00
2019-01-12T05:04:25.512Z,0.00
2019-01-12T05:06:18.384Z,0.00
2019-01-12T05:07:18.398Z,0.00
2019-01-12T05:09:11.297Z,0.00
2019-01-12T05:10:11.300Z,0.00
2019-01-12T05:12:04.200Z,0.00
2019-01-12T05:13:04.214Z,0.00
2019-01-12T05:14:57.117Z,0.00
2019-01-12T05:15:57.121Z,0.00
2019-01-12T05:17:50.017Z,0.00
2019-01-12T05:18:50.028Z,0.00
2019-01-12T05:20:42.937Z,0.00
2019-01-12T05:21:42.939Z,0.00
2019-01-12T05:23:35.846Z,0.00
2019-01-12T05:24:35.846Z,0.00
2019-01-12T05:26:28.744Z,0.00
2019-01-12T05:27:28.756Z,0.00
2019-01-12T05:29:21.661Z,0.00
2019-01-12T05:30:21.664Z,0.00
2019-01-12T05:32:14.560Z,0.00
2019-01-12T05:33:14.570Z,0.00
2019-01-12T05:35:07.479Z,0.00
2019-01-12T05:36:07.479Z,0.00
2019-01-12T05:38:00.378Z,0.00
2019-01-12T05:39:00.389Z,0.00
2019-01-12T05:40:53.321Z,0.00
2019-01-12T05:41:53.295Z,0.00
2019-01-12T05:43:46.194Z,0.00
2019-01-12T05:44:46.204Z,0.00
2019-01-12T05:46:39.104Z,0.00
2019-01-12T05:47:39.109Z,0.00
2019-01-12T05:49:32.011Z,0.00
2019-01-12T05:50:32.016Z,0.00
2019-01-12T05:52:24.914Z,0.00
2019-01-12T05:53:24.923Z,0.00
2019-01-12T05:55:17.834Z,0.00
2019-01-12T05:56:17.833Z,0.00
2019-01-12T05:58:10.732Z,0.00
2019-01-12T05:59:10.740Z,0.00
2019-01-12T06:01:03.648Z,0.00
2019-01-12T06:02:03.651Z,0.00
2019-01-12T06:03:56.548Z,0.00
2019-01-12T06:04:56.560Z,0.00
2019-01-12T06:06:49.469Z,0.00
2019-01-12T06:07:49.467Z,0.00
2019-01-12T06:09:42.363Z,0.00
2019-01-12T06:10:42.377Z,0.00
2019-01-12T06:12:35.279Z,0.00
2019-01-12T06:13:35.282Z,0.00
2019-01-12T06:15:28.187Z,0.00
2019-01-12T06:16:28.190Z,0.00
2019-01-12T06:18:21.087Z,0.00
2019-01-12T06:19:21.098Z,0.00
2019-01-12T06:21:14.000Z,0.00
2019-01-12T06:22:14.004Z,0.00
2019-01-12T06:24:06.902Z,0.00
2019-01-12T06:25:06.913Z,0.00
2019-01-12T06:26:59.837Z,0.00
2019-01-12T06:27:59.823Z,0.00
2019-01-12T06:29:52.720Z,0.00
2019-01-12T06:30:52.730Z,0.00
2019-01-12T06:32:45.634Z,0.00
2019-01-12T06:33:45.638Z,0.00
2019-01-12T06:35:38.558Z,0.00
2019-01-12T06:36:38.549Z,0.00
2019-01-12T06:38:31.446Z,0.00
2019-01-12T06:39:31.456Z,0.00
2019-01-12T06:41:24.365Z,0.00
2019-01-12T06:42:24.369Z,0.00
2019-01-12T06:44:17.268Z,0.00
2019-01-12T06:45:17.273Z,0.00
2019-01-12T06:47:10.177Z,0.00
2019-01-12T06:48:10.185Z,0.00
2019-01-12T06:50:10.220Z,0.00
2019-01-12T06:51:03.114Z,0.00
2019-01-12T06:52:56.019Z,0.00
2019-01-12T06:53:56.095Z,0.00
2019-01-12T06:55:48.916Z,0.00
2019-01-12T06:56:48.929Z,0.00
2019-01-12T06:58:41.835Z,0.00
2019-01-12T06:59:41.839Z,0.00
2019-01-12T07:01:34.736Z,0.00
2019-01-12T07:02:34.749Z,0.00
2019-01-12T07:04:27.651Z,4.00
2019-01-12T07:05:27.656Z,4.00
2019-01-12T07:07:20.559Z,4.00
2019-01-12T07:08:20.562Z,4.00
2019-01-12T07:10:13.459Z,4.00
2019-01-12T07:11:13.469Z,8.00
2019-01-12T07:13:06.382Z,8.00
2019-01-12T07:14:06.378Z,12.00
2019-01-12T07:15:59.274Z,12.00
2019-01-12T07:16:59.289Z,12.00
2019-01-12T07:18:52.190Z,20.00
2019-01-12T07:19:52.192Z,20.00
2019-01-12T07:21:45.088Z,16.00
2019-01-12T07:22:46.339Z,20.00
2019-01-12T07:24:38.011Z,20.00
2019-01-12T07:25:38.014Z,20.00
2019-01-12T07:27:30.916Z,32.00
2019-01-12T07:28:30.920Z,44.00
2019-01-12T07:30:23.814Z,76.00
2019-01-12T07:31:23.826Z,76.00
2019-01-12T07:33:16.735Z,100.00
2019-01-12T07:34:16.735Z,112.00
2019-01-12T07:36:09.632Z,112.00
2019-01-12T07:37:09.642Z,112.00
2019-01-12T07:39:02.545Z,136.00
2019-01-12T07:40:02.551Z,152.00
2019-01-12T07:41:55.455Z,176.00
2019-01-12T07:42:55.467Z,176.00
2019-01-12T07:44:48.371Z,200.00
2019-01-12T07:45:48.374Z,192.00
2019-01-12T07:47:41.271Z,172.00
2019-01-12T07:48:41.329Z,192.00
2019-01-12T07:50:34.181Z,168.00
2019-01-12T07:51:34.191Z,164.00
2019-01-12T07:53:27.098Z,180.00
2019-01-12T07:54:27.102Z,200.00
2019-01-12T07:56:24.469Z,244.00
2019-01-12T07:57:20.007Z,268.00
2019-01-12T07:59:12.911Z,256.00
2019-01-12T08:00:12.912Z,272.00
2019-01-12T08:02:05.813Z,304.00
2019-01-12T08:03:05.821Z,300.00
2019-01-12T08:04:58.722Z,400.00
2019-01-12T08:05:58.726Z,448.00
2019-01-12T08:07:51.624Z,440.00
2019-01-12T08:08:51.634Z,496.00
2019-01-12T08:10:44.540Z,676.00
2019-01-12T08:11:44.545Z,796.00
2019-01-12T08:13:37.441Z,832.00
2019-01-12T08:14:37.452Z,892.00
2019-01-12T08:16:30.354Z,988.00
2019-01-12T08:17:30.356Z,976.00
2019-01-12T08:19:23.262Z,844.00
2019-01-12T08:20:23.322Z,712.00
2019-01-12T08:22:16.164Z,548.00
2019-01-12T08:23:16.174Z,440.00
2019-01-12T08:25:09.078Z,408.00
2019-01-12T08:26:09.080Z,400.00
2019-01-12T08:28:01.980Z,364.00
2019-01-12T08:29:01.991Z,384.00
2019-01-12T08:30:54.898Z,392.00
2019-01-12T08:31:54.902Z,408.00
2019-01-12T08:33:47.801Z,520.00
2019-01-12T08:34:47.811Z,576.00
2019-01-12T08:36:40.720Z,520.00
2019-01-12T08:37:40.773Z,512.00
2019-01-12T08:39:33.626Z,492.00
2019-01-12T08:40:33.629Z,488.00
2019-01-12T08:42:27.202Z,512.00
2019-01-12T08:43:26.540Z,560.00
2019-01-12T08:45:19.443Z,688.00
2019-01-12T08:46:19.497Z,748.00
2019-01-12T08:48:12.345Z,816.00
2019-01-12T08:49:12.357Z,908.00
2019-01-12T08:51:05.274Z,896.00
2019-01-12T08:52:05.268Z,796.00
2019-01-12T08:53:58.164Z,696.00
2019-01-12T08:54:58.217Z,640.00
2019-01-12T08:56:51.081Z,712.00
2019-01-12T08:57:51.087Z,772.00
2019-01-12T08:59:43.982Z,776.00
2019-01-12T09:00:43.994Z,768.00
2019-01-12T09:02:36.901Z,804.00
2019-01-12T09:03:36.902Z,792.00
2019-01-12T09:05:29.806Z,1072.00
2019-01-12T09:06:29.814Z,940.00
2019-01-12T09:08:22.709Z,688.00
2019-01-12T09:09:22.720Z,1048.00
2019-01-12T09:11:15.623Z,756.00
2019-01-12T09:12:15.625Z,792.00
2019-01-12T09:14:08.532Z,584.00
2019-01-12T09:15:08.541Z,608.00
2019-01-12T09:17:01.448Z,868.00
2019-01-12T09:18:01.452Z,820.00
2019-01-12T09:19:54.346Z,668.00
2019-01-12T09:20:54.358Z,604.00
2019-01-12T09:22:47.262Z,928.00
2019-01-12T09:23:47.267Z,956.00
2019-01-12T09:25:40.190Z,1132.00
2019-01-12T09:26:44.883Z,912.00
2019-01-12T09:28:33.073Z,936.00
2019-01-12T09:29:33.086Z,732.00
2019-01-12T09:31:25.989Z,668.00
2019-01-12T09:32:25.996Z,800.00
2019-01-12T09:34:18.890Z,1056.00
2019-01-12T09:35:18.904Z,1092.00
2019-01-12T09:37:11.812Z,1352.00
2019-01-12T09:38:11.816Z,1260.00
2019-01-12T09:40:04.715Z,1180.00
2019-01-12T09:41:04.727Z,1232.00
2019-01-12T09:42:57.629Z,1656.00
2019-01-12T09:43:57.634Z,1400.00
2019-01-12T09:45:50.528Z,1688.00
2019-01-12T09:46:50.541Z,2032.00
2019-01-12T09:48:43.446Z,1932.00
2019-01-12T09:49:43.450Z,1704.00
2019-01-12T09:51:36.356Z,1392.00
2019-01-12T09:52:36.359Z,1300.00
2019-01-12T09:54:29.259Z,1196.00
2019-01-12T09:55:29.270Z,1052.00
2019-01-12T09:57:22.175Z,936.00
2019-01-12T09:58:22.178Z,864.00
2019-01-12T10:00:15.079Z,768.00
2019-01-12T10:01:15.087Z,808.00
2019-01-12T10:03:07.988Z,760.00
2019-01-12T10:04:07.992Z,620.00
2019-01-12T10:06:00.890Z,624.00
2019-01-12T10:07:00.905Z,612.00
2019-01-12T10:08:53.806Z,664.00
2019-01-12T10:09:53.811Z,656.00
2019-01-12T10:11:46.789Z,728.00
2019-01-12T10:12:46.726Z,688.00
2019-01-12T10:14:39.628Z,732.00
2019-01-12T10:15:39.632Z,820.00
2019-01-12T10:17:32.539Z,664.00
2019-01-12T10:18:32.541Z,600.00
2019-01-12T10:20:25.440Z,772.00
2019-01-12T10:21:25.451Z,1000.00
2019-01-12T10:23:18.355Z,936.00
2019-01-12T10:24:18.362Z,1240.00
2019-01-12T10:26:11.261Z,1456.00
2019-01-12T10:27:11.271Z,1492.00
2019-01-12T10:29:04.178Z,1208.00
2019-01-12T10:30:04.181Z,1152.00
2019-01-12T10:31:57.082Z,1252.00
2019-01-12T10:32:57.091Z,1224.00
2019-01-12T10:34:49.993Z,1104.00
2019-01-12T10:35:50.001Z,1224.00
2019-01-12T10:37:42.895Z,944.00
2019-01-12T10:38:42.910Z,1288.00
2019-01-12T10:40:35.815Z,1160.00
2019-01-12T10:41:35.817Z,932.00
2019-01-12T10:43:28.723Z,1076.00
2019-01-12T10:44:28.727Z,892.00
2019-01-12T10:46:21.626Z,888.00
2019-01-12T10:47:21.637Z,904.00
2019-01-12T10:49:14.539Z,856.00
2019-01-12T10:50:14.544Z,1104.00
2019-01-12T10:52:07.442Z,996.00
2019-01-12T10:53:07.456Z,1072.00
2019-01-12T10:55:00.432Z,1032.00
2019-01-12T10:56:00.361Z,888.00
2019-01-12T10:57:53.260Z,788.00
2019-01-12T10:58:53.269Z,852.00
2019-01-12T11:00:46.173Z,908.00
2019-01-12T11:01:46.177Z,1204.00
2019-01-12T11:03:39.074Z,1236.00
2019-01-12T11:04:39.086Z,892.00
2019-01-12T11:06:31.992Z,876.00
2019-01-12T11:07:32.131Z,676.00
2019-01-12T11:09:24.935Z,984.00
2019-01-12T11:10:24.906Z,1124.00
2019-01-12T11:12:17.803Z,1536.00
2019-01-12T11:13:17.814Z,1868.00
2019-01-12T11:15:10.720Z,1956.00
2019-01-12T11:16:10.723Z,1652.00
2019-01-12T11:18:03.635Z,1560.00
2019-01-12T11:19:03.633Z,1508.00
2019-01-12T11:20:56.536Z,1668.00
2019-01-12T11:21:56.543Z,1704.00
2019-01-12T11:23:49.449Z,1192.00
2019-01-12T11:24:49.450Z,896.00
2019-01-12T11:26:42.388Z,860.00
2019-01-12T11:27:42.397Z,1116.00
2019-01-12T11:29:35.325Z,1224.00
2019-01-12T11:30:35.329Z,1024.00
2019-01-12T11:32:28.225Z,976.00
2019-01-12T11:33:28.242Z,1240.00
2019-01-12T11:35:21.291Z,1504.00
2019-01-12T11:36:21.297Z,1272.00
2019-01-12T11:38:14.202Z,1556.00
2019-01-12T11:39:14.204Z,1616.00
2019-01-12T11:41:07.113Z,1348.00
2019-01-12T11:42:07.123Z,1312.00
2019-01-12T11:44:00.016Z,1260.00
2019-01-12T11:45:00.025Z,1624.00
2019-01-12T11:46:52.931Z,1336.00
2019-01-12T11:47:52.933Z,1360.00
2019-01-12T11:49:45.838Z,864.00
2019-01-12T11:50:45.843Z,960.00
2019-01-12T11:52:38.797Z,1148.00
2019-01-12T11:53:38.756Z,988.00
2019-01-12T11:55:31.657Z,1004.00
2019-01-12T11:56:31.707Z,876.00
2019-01-12T11:58:24.564Z,904.00
2019-01-12T11:59:24.574Z,884.00
2019-01-12T12:01:17.477Z,776.00
2019-01-12T12:02:17.483Z,920.00
2019-01-12T12:04:10.384Z,1104.00
2019-01-12T12:05:10.392Z,824.00
2019-01-12T12:07:03.296Z,528.00
2019-01-12T12:08:03.299Z,444.00
2019-01-12T12:09:56.293Z,660.00
2019-01-12T12:10:56.207Z,692.00
2019-01-12T12:12:49.118Z,1048.00
2019-01-12T12:13:49.123Z,1348.00
2019-01-12T12:15:42.023Z,1020.00
2019-01-12T12:16:42.027Z,1232.00
2019-01-12T12:18:34.930Z,836.00
2019-01-12T12:19:34.939Z,780.00
2019-01-12T12:21:27.848Z,724.00
2019-01-12T12:22:27.853Z,784.00
2019-01-12T12:24:20.752Z,1036.00
2019-01-12T12:25:20.761Z,1244.00
2019-01-12T12:27:13.665Z,1092.00
2019-01-12T12:28:13.671Z,1304.00
2019-01-12T12:30:06.567Z,1176.00
2019-01-12T12:31:06.578Z,1200.00
2019-01-12T12:32:59.485Z,1132.00
2019-01-12T12:33:59.487Z,1044.00
2019-01-12T12:35:52.383Z,808.00
2019-01-12T12:36:52.396Z,868.00
2019-01-12T12:38:45.303Z,1096.00
2019-01-12T12:39:45.307Z,1392.00
2019-01-12T12:41:38.211Z,1312.00
2019-01-12T12:42:38.217Z,1292.00
2019-01-12T12:44:31.115Z,1392.00
2019-01-12T12:45:31.126Z,1080.00
2019-01-12T12:47:24.049Z,1488.00
2019-01-12T12:48:25.519Z,1520.00
2019-01-12T12:50:16.932Z,1300.00
2019-01-12T12:51:16.941Z,1444.00
2019-01-12T12:53:09.848Z,1636.00
2019-01-12T12:55:22.747Z,1548.00
2019-01-12T12:56:22.759Z,1812.00
2019-01-12T12:58:15.667Z,1368.00
2019-01-12T12:59:16.031Z,1892.00
2019-01-12T13:01:08.578Z,1464.00
2019-01-12T13:02:08.590Z,1768.00
2019-01-12T13:04:01.494Z,1344.00
2019-01-12T13:05:01.499Z,1592.00
2019-01-12T13:06:54.408Z,1224.00
2019-01-12T13:07:54.413Z,980.00
2019-01-12T13:09:47.318Z,1152.00
2019-01-12T13:10:47.323Z,1272.00
2019-01-12T13:12:40.260Z,1092.00
2019-01-12T13:13:40.232Z,1136.00
2019-01-12T13:15:33.129Z,1068.00
2019-01-12T13:16:33.140Z,896.00
2019-01-12T13:18:26.049Z,960.00
2019-01-12T13:19:26.052Z,996.00
2019-01-12T13:21:18.948Z,772.00
2019-01-12T13:22:18.959Z,924.00
2019-01-12T13:24:11.859Z,1188.00
2019-01-12T13:25:11.867Z,1028.00
2019-01-12T13:27:04.765Z,1328.00
2019-01-12T13:28:04.776Z,1100.00
2019-01-12T13:29:57.677Z,908.00
2019-01-12T13:30:57.681Z,956.00
2019-01-12T13:32:50.579Z,844.00
2019-01-12T13:33:50.590Z,816.00
2019-01-12T13:35:43.553Z,760.00
2019-01-12T13:36:43.498Z,844.00
2019-01-12T13:38:37.411Z,756.00
2019-01-12T13:39:37.440Z,760.00
2019-01-12T13:41:30.308Z,716.00
2019-01-12T13:42:30.317Z,764.00
2019-01-12T13:44:23.222Z,724.00
2019-01-12T13:45:23.227Z,924.00
2019-01-12T13:47:20.845Z,832.00
2019-01-12T13:48:16.141Z,1024.00
2019-01-12T13:50:09.055Z,828.00
2019-01-12T13:51:09.048Z,712.00
2019-01-12T13:53:01.945Z,896.00
2019-01-12T13:54:01.994Z,948.00
2019-01-12T13:55:54.863Z,828.00
2019-01-12T13:56:54.868Z,776.00
2019-01-12T13:58:47.771Z,520.00
2019-01-12T13:59:47.775Z,608.00
2019-01-12T14:01:40.681Z,492.00
2019-01-12T14:02:40.686Z,516.00
2019-01-12T14:04:33.600Z,484.00
2019-01-12T14:05:33.595Z,492.00
2019-01-12T14:07:26.493Z,504.00
2019-01-12T14:08:26.503Z,508.00
2019-01-12T14:10:19.408Z,512.00
2019-01-12T14:11:19.413Z,468.00
2019-01-12T14:13:12.306Z,536.00
2019-01-12T14:14:12.321Z,652.00
2019-01-12T14:16:05.233Z,540.00
2019-01-12T14:17:05.235Z,660.00
2019-01-12T14:18:58.130Z,520.00
2019-01-12T14:19:58.141Z,576.00
2019-01-12T14:21:51.046Z,460.00
2019-01-12T14:22:51.049Z,424.00
2019-01-12T14:24:44.064Z,516.00
2019-01-12T14:25:43.962Z,528.00
2019-01-12T14:27:36.871Z,524.00
2019-01-12T14:28:36.872Z,516.00
2019-01-12T14:30:29.776Z,356.00
2019-01-12T14:31:29.780Z,360.00
2019-01-12T14:33:23.671Z,348.00
2019-01-12T14:34:23.687Z,464.00
2019-01-12T14:36:16.632Z,396.00
2019-01-12T14:37:16.595Z,308.00
2019-01-12T14:39:09.491Z,588.00
2019-01-12T14:40:09.504Z,516.00
2019-01-12T14:42:02.407Z,524.00
2019-01-12T14:43:02.411Z,432.00
2019-01-12T14:44:55.311Z,248.00
2019-01-12T14:45:55.322Z,200.00
2019-01-12T14:47:48.226Z,168.00
2019-01-12T14:48:48.233Z,168.00
2019-01-12T14:50:41.127Z,168.00
2019-01-12T14:51:41.140Z,164.00
2019-01-12T14:53:34.046Z,180.00
2019-01-12T14:54:34.062Z,208.00
2019-01-12T14:56:26.987Z,220.00
2019-01-12T14:57:26.961Z,200.00
2019-01-12T14:59:19.861Z,152.00
2019-01-12T15:00:19.878Z,132.00
2019-01-12T15:02:12.777Z,124.00
2019-01-12T15:03:12.781Z,132.00
2019-01-12T15:05:05.698Z,124.00
2019-01-12T15:06:05.703Z,148.00
2019-01-12T15:07:58.608Z,140.00
2019-01-12T15:08:58.600Z,164.00
2019-01-12T15:10:51.497Z,160.00
2019-01-12T15:11:51.509Z,132.00
2019-01-12T15:13:44.414Z,104.00
2019-01-12T15:14:44.418Z,100.00
2019-01-12T15:16:37.314Z,100.00
2019-01-12T15:17:37.328Z,112.00
2019-01-12T15:19:30.233Z,80.00
2019-01-12T15:20:30.241Z,108.00
2019-01-12T15:22:23.145Z,124.00
2019-01-12T15:23:23.148Z,164.00
2019-01-12T15:25:16.045Z,140.00
2019-01-12T15:26:16.053Z,144.00
2019-01-12T15:28:09.611Z,140.00
2019-01-12T15:29:08.969Z,120.00
2019-01-12T15:31:01.871Z,88.00
2019-01-12T15:32:01.876Z,72.00
2019-01-12T15:33:54.785Z,56.00
2019-01-12T15:34:54.786Z,64.00
2019-01-12T15:36:47.686Z,40.00
2019-01-12T15:37:47.697Z,44.00
2019-01-12T15:39:40.602Z,60.00
2019-01-12T15:40:40.605Z,44.00
2019-01-12T15:42:33.505Z,36.00
2019-01-12T15:43:33.516Z,36.00
2019-01-12T15:45:26.424Z,32.00
2019-01-12T15:46:26.973Z,36.00
2019-01-12T15:48:19.339Z,32.00
2019-01-12T15:49:19.340Z,32.00
2019-01-12T15:51:12.245Z,28.00
2019-01-12T15:52:12.251Z,24.00
2019-01-12T15:54:05.160Z,20.00
2019-01-12T15:55:05.162Z,20.00
2019-01-12T15:56:58.073Z,16.00
2019-01-12T15:57:58.086Z,12.00
2019-01-12T15:59:50.995Z,8.00
2019-01-12T16:00:50.996Z,8.00
2019-01-12T16:02:43.894Z,8.00
2019-01-12T16:03:43.907Z,4.00
2019-01-12T16:05:36.811Z,0.00
2019-01-12T16:06:36.815Z,0.00
2019-01-12T16:08:29.715Z,0.00
2019-01-12T16:09:29.726Z,0.00
2019-01-12T16:11:22.652Z,0.00
2019-01-12T16:12:22.656Z,0.00
2019-01-12T16:14:15.555Z,0.00
2019-01-12T16:15:15.566Z,0.00
2019-01-12T16:17:08.471Z,0.00
2019-01-12T16:18:08.474Z,0.00
2019-01-12T16:20:01.426Z,0.00
2019-01-12T16:21:01.394Z,0.00
2019-01-12T16:22:54.290Z,0.00
2019-01-12T16:23:54.301Z,0.00
2019-01-12T16:25:47.206Z,0.00
2019-01-12T16:26:47.210Z,0.00
2019-01-12T16:28:40.114Z,0.00
2019-01-12T16:29:40.135Z,0.00
2019-01-12T16:31:33.025Z,0.00
2019-01-12T16:32:33.030Z,0.00
2019-01-12T16:34:25.928Z,0.00
2019-01-12T16:35:25.939Z,0.00
2019-01-12T16:37:18.845Z,0.00
2019-01-12T16:38:18.851Z,0.00
2019-01-12T16:40:11.749Z,0.00
2019-01-12T16:41:11.757Z,0.00
2019-01-12T16:43:04.684Z,0.00
2019-01-12T16:44:04.717Z,0.00
2019-01-12T16:45:57.596Z,0.00
2019-01-12T16:46:57.668Z,0.00
2019-01-12T16:48:50.497Z,0.00
2019-01-12T16:49:50.557Z,0.00
2019-01-12T16:51:43.545Z,0.00
2019-01-12T16:52:43.473Z,0.00
2019-01-12T16:54:36.318Z,0.00
2019-01-12T16:55:36.349Z,0.00
2019-01-12T16:57:29.332Z,0.00
2019-01-12T16:58:30.698Z,0.00
2019-01-12T17:00:22.177Z,0.00
2019-01-12T17:01:22.191Z,0.00
2019-01-12T17:03:15.108Z,0.00
2019-01-12T17:04:15.092Z,0.00
2019-01-12T17:06:08.004Z,0.00
2019-01-12T17:07:08.040Z,0.00
2019-01-12T17:09:00.952Z,0.00
2019-01-12T17:10:00.896Z,0.00
2019-01-12T17:11:53.780Z,0.00
2019-01-12T17:12:53.779Z,0.00
2019-01-12T17:14:46.678Z,0.00
2019-01-12T17:15:46.703Z,0.00
2019-01-12T17:17:39.598Z,0.00
2019-01-12T17:18:39.601Z,0.00
2019-01-12T17:20:32.497Z,0.00
2019-01-12T17:21:32.510Z,0.00
2019-01-12T17:23:25.418Z,0.00
2019-01-12T17:24:25.424Z,0.00
2019-01-12T17:26:18.319Z,0.00
2019-01-12T17:27:18.333Z,0.00
2019-01-12T17:29:17.543Z,0.00
2019-01-12T17:30:11.242Z,0.00
2019-01-12T17:32:04.139Z,0.00
2019-01-12T17:33:04.148Z,0.00
2019-01-12T17:34:57.059Z,0.00
2019-01-12T17:35:57.064Z,0.00
2019-01-12T17:37:49.959Z,0.00
2019-01-12T17:38:49.971Z,0.00
2019-01-12T17:40:42.893Z,0.00
2019-01-12T17:41:42.890Z,0.00
2019-01-12T17:43:35.797Z,0.00
2019-01-12T17:44:35.804Z,0.00
2019-01-12T17:46:28.704Z,0.00
2019-01-12T17:47:28.718Z,0.00
2019-01-12T17:49:21.624Z,0.00
2019-01-12T17:50:21.628Z,0.00
2019-01-12T17:52:14.529Z,0.00
2019-01-12T17:53:14.538Z,0.00
2019-01-12T17:55:07.452Z,0.00
2019-01-12T17:56:07.460Z,0.00
2019-01-12T17:58:01.163Z,0.00
2019-01-12T17:59:00.369Z,0.00
2019-01-12T18:00:53.278Z,0.00
2019-01-12T18:01:53.284Z,0.00
2019-01-12T18:03:46.178Z,0.00
2019-01-12T18:04:46.191Z,0.00
2019-01-12T18:06:39.094Z,0.00
2019-01-12T18:07:39.100Z,0.00
2019-01-12T18:09:32.131Z,0.00
2019-01-12T18:10:32.003Z,0.00
2019-01-12T18:12:24.908Z,0.00
2019-01-12T18:13:24.918Z,0.00
2019-01-12T18:15:17.826Z,0.00
2019-01-12T18:16:17.826Z,0.00
2019-01-12T18:18:10.726Z,0.00
2019-01-12T18:19:10.738Z,0.00
2019-01-12T18:21:03.644Z,0.00
2019-01-12T18:22:03.649Z,0.00
2019-01-12T18:23:56.537Z,0.00
2019-01-12T18:24:56.557Z,0.00
2019-01-12T18:26:49.461Z,0.00
2019-01-12T18:27:49.466Z,0.00
2019-01-12T18:29:42.363Z,0.00
2019-01-12T18:30:42.377Z,0.00
2019-01-12T18:32:35.281Z,0.00